MAU744 FIMP-VIDP
Flight info
| Callsign | MAU744 |
|---|---|
| Flight time | N/A |
| Altitude | 37000 |
| Route | TIDUM1A TIDUM UT475 MURUS A474 ENBAD/N0467F390 A474 BBB G208 DOSTO Q1 BUBNU A347 UKASO UKASO6G |
| Aircraft | A332/H-SDE3GHIJ2J3J5M1RVWXY/LB2D1 |
Departure
| Time | 2026-05-08 20:55 |
|---|---|
| Airport | Sir Seewoosagur Ramgoolam International Airport (FIMP) |
Arrival
| Time | N/A |
|---|---|
| Airport | Indira Gandhi International Airport (VIDP) |
| Time | Latitude | Longitude | Altitude | Speed | Heading |
|---|---|---|---|---|---|
| 2026-05-08 20:29 | -20.43171 | 57.67847 | 200 ft | 0 kts | 212° |
| 2026-05-08 20:29 | -20.43167 | 57.67849 | 206 ft | 0 kts | 212° |
| 2026-05-08 20:48 | -20.43157 | 57.67856 | 207 ft | 4 kts | 212° |
| 2026-05-08 20:48 | -20.43134 | 57.67871 | 203 ft | 4 kts | 212° |
| 2026-05-08 20:48 | -20.43115 | 57.67884 | 205 ft | 4 kts | 227° |
| 2026-05-08 20:48 | -20.43104 | 57.67908 | 205 ft | 4 kts | 270° |
| 2026-05-08 20:49 | -20.43109 | 57.67935 | 201 ft | 4 kts | 296° |
| 2026-05-08 20:49 | -20.43118 | 57.67951 | 205 ft | 0 kts | 308° |
| 2026-05-08 20:51 | -20.43116 | 57.67949 | 205 ft | 3 kts | 308° |
| 2026-05-08 20:51 | -20.43096 | 57.67918 | 205 ft | 5 kts | 303° |
| 2026-05-08 20:51 | -20.43076 | 57.67884 | 201 ft | 6 kts | 301° |
| 2026-05-08 20:51 | -20.43050 | 57.67827 | 202 ft | 15 kts | 297° |
| 2026-05-08 20:52 | -20.42988 | 57.67696 | 200 ft | 23 kts | 296° |
| 2026-05-08 20:52 | -20.42875 | 57.67602 | 205 ft | 21 kts | 329° |
| 2026-05-08 20:52 | -20.42778 | 57.67527 | 204 ft | 15 kts | 321° |
| 2026-05-08 20:52 | -20.42697 | 57.67474 | 207 ft | 12 kts | 334° |
| 2026-05-08 20:53 | -20.42630 | 57.67448 | 201 ft | 7 kts | 355° |
| 2026-05-08 20:53 | -20.42609 | 57.67469 | 205 ft | 2 kts | 78° |
| 2026-05-08 20:53 | -20.42619 | 57.67510 | 206 ft | 10 kts | 115° |
| 2026-05-08 20:53 | -20.42672 | 57.67624 | 203 ft | 32 kts | 117° |
| 2026-05-08 20:54 | -20.42865 | 57.68025 | 200 ft | 88 kts | 117° |
| 2026-05-08 20:54 | -20.43223 | 57.68767 | 174 ft | 137 kts | 117° |
| 2026-05-08 20:54 | -20.43715 | 57.69789 | 366 ft | 162 kts | 116° |
| 2026-05-08 20:54 | -20.44260 | 57.70917 | 743 ft | 177 kts | 116° |
| 2026-05-08 20:55 | -20.44799 | 57.72027 | 1677 ft | 158 kts | 116° |
| 2026-05-08 20:55 | -20.45274 | 57.73003 | 2564 ft | 140 kts | 115° |
| 2026-05-08 20:55 | -20.45715 | 57.73916 | 3108 ft | 139 kts | 115° |
| 2026-05-08 20:55 | -20.45995 | 57.74919 | 3412 ft | 150 kts | 92° |
| 2026-05-08 20:56 | -20.45656 | 57.76040 | 3601 ft | 176 kts | 54° |
| 2026-05-08 20:56 | -20.44508 | 57.76695 | 3815 ft | 209 kts | 9° |
| 2026-05-08 20:56 | -20.43008 | 57.76318 | 4081 ft | 238 kts | 337° |
| 2026-05-08 20:56 | -20.41515 | 57.75400 | 4384 ft | 256 kts | 331° |
| 2026-05-08 20:57 | -20.39971 | 57.74384 | 4839 ft | 265 kts | 331° |
| 2026-05-08 20:57 | -20.38366 | 57.73360 | 5383 ft | 271 kts | 333° |
| 2026-05-08 20:57 | -20.36724 | 57.72343 | 6066 ft | 274 kts | 333° |
| 2026-05-08 20:57 | -20.35065 | 57.71334 | 6790 ft | 276 kts | 334° |
| 2026-05-08 20:58 | -20.33388 | 57.70326 | 7470 ft | 278 kts | 334° |
| 2026-05-08 20:58 | -20.31685 | 57.69309 | 8150 ft | 282 kts | 333° |
| 2026-05-08 20:58 | -20.29967 | 57.68287 | 8831 ft | 284 kts | 333° |
| 2026-05-08 20:58 | -20.28231 | 57.67257 | 9498 ft | 288 kts | 333° |
| 2026-05-08 20:59 | -20.26496 | 57.66227 | 10142 ft | 291 kts | 332° |
| 2026-05-08 20:59 | -20.24716 | 57.65172 | 10723 ft | 294 kts | 332° |
| 2026-05-08 20:59 | -20.22922 | 57.64110 | 11334 ft | 297 kts | 332° |
| 2026-05-08 20:59 | -20.21107 | 57.63035 | 11936 ft | 300 kts | 332° |
| 2026-05-08 21:00 | -20.19274 | 57.61951 | 12534 ft | 303 kts | 332° |
| 2026-05-08 21:00 | -20.17413 | 57.60871 | 13119 ft | 306 kts | 336° |
| 2026-05-08 21:00 | -20.15415 | 57.60011 | 13544 ft | 315 kts | 342° |
| 2026-05-08 21:00 | -20.13290 | 57.59238 | 13774 ft | 331 kts | 343° |
| 2026-05-08 21:01 | -20.11051 | 57.58447 | 14012 ft | 346 kts | 343° |
| 2026-05-08 21:01 | -20.08724 | 57.57623 | 14225 ft | 360 kts | 343° |
| 2026-05-08 21:01 | -20.06314 | 57.56765 | 14426 ft | 374 kts | 343° |
| 2026-05-08 21:01 | -20.03821 | 57.55874 | 14698 ft | 384 kts | 342° |
| 2026-05-08 21:02 | -20.01270 | 57.54960 | 15152 ft | 389 kts | 342° |
| 2026-05-08 21:02 | -19.98691 | 57.54036 | 15626 ft | 393 kts | 342° |
| 2026-05-08 21:02 | -19.96098 | 57.53107 | 16111 ft | 396 kts | 342° |
| 2026-05-08 21:02 | -19.93486 | 57.52171 | 16641 ft | 398 kts | 342° |
| 2026-05-08 21:03 | -19.90867 | 57.51233 | 17096 ft | 402 kts | 342° |
| 2026-05-08 21:03 | -19.88154 | 57.50426 | 17573 ft | 404 kts | 349° |
| 2026-05-08 21:03 | -19.85365 | 57.50137 | 18140 ft | 404 kts | 0° |
| 2026-05-08 21:03 | -19.82543 | 57.50232 | 18564 ft | 408 kts | 3° |
| 2026-05-08 21:04 | -19.79704 | 57.50416 | 19008 ft | 409 kts | 4° |
| 2026-05-08 21:04 | -19.76855 | 57.50610 | 19395 ft | 412 kts | 4° |
| 2026-05-08 21:04 | -19.73993 | 57.50801 | 19823 ft | 413 kts | 4° |
| 2026-05-08 21:04 | -19.71120 | 57.50988 | 20214 ft | 415 kts | 4° |
| 2026-05-08 21:05 | -19.68239 | 57.51172 | 20621 ft | 417 kts | 4° |
| 2026-05-08 21:05 | -19.65322 | 57.51358 | 20985 ft | 419 kts | 4° |
| 2026-05-08 21:05 | -19.62401 | 57.51542 | 21379 ft | 421 kts | 4° |
| 2026-05-08 21:05 | -19.59470 | 57.51727 | 21741 ft | 424 kts | 4° |
| 2026-05-08 21:06 | -19.56518 | 57.51912 | 22127 ft | 425 kts | 4° |
| 2026-05-08 21:06 | -19.53559 | 57.52098 | 22487 ft | 428 kts | 4° |
| 2026-05-08 21:06 | -19.50584 | 57.52285 | 22859 ft | 430 kts | 4° |
| 2026-05-08 21:06 | -19.47590 | 57.52473 | 23220 ft | 432 kts | 4° |
| 2026-05-08 21:07 | -19.44585 | 57.52661 | 23571 ft | 434 kts | 4° |
| 2026-05-08 21:07 | -19.41565 | 57.52851 | 23873 ft | 436 kts | 4° |
| 2026-05-08 21:07 | -19.38528 | 57.53041 | 24137 ft | 438 kts | 4° |
| 2026-05-08 21:07 | -19.35518 | 57.53229 | 24397 ft | 441 kts | 4° |
| 2026-05-08 21:08 | -19.32412 | 57.53424 | 24678 ft | 443 kts | 4° |
| 2026-05-08 21:08 | -19.29327 | 57.53617 | 24945 ft | 445 kts | 4° |
| 2026-05-08 21:08 | -19.26275 | 57.53807 | 25228 ft | 447 kts | 4° |
| 2026-05-08 21:08 | -19.23158 | 57.54002 | 25499 ft | 449 kts | 3° |
| 2026-05-08 21:09 | -19.20029 | 57.54198 | 25779 ft | 451 kts | 4° |
| 2026-05-08 21:09 | -19.16885 | 57.54394 | 26034 ft | 454 kts | 3° |
| 2026-05-08 21:09 | -19.13733 | 57.54591 | 26328 ft | 455 kts | 3° |
| 2026-05-08 21:09 | -19.10561 | 57.54789 | 26591 ft | 458 kts | 3° |
| 2026-05-08 21:10 | -19.07371 | 57.54988 | 26873 ft | 460 kts | 3° |
| 2026-05-08 21:10 | -19.04173 | 57.55187 | 27137 ft | 462 kts | 3° |
| 2026-05-08 21:10 | -19.00960 | 57.55388 | 27411 ft | 464 kts | 3° |
| 2026-05-08 21:10 | -18.97724 | 57.55589 | 27676 ft | 466 kts | 3° |
| 2026-05-08 21:11 | -18.94485 | 57.55791 | 27937 ft | 468 kts | 3° |
| 2026-05-08 21:11 | -18.91227 | 57.55994 | 28202 ft | 470 kts | 2° |
| 2026-05-08 21:11 | -18.87954 | 57.56198 | 28443 ft | 472 kts | 2° |
| 2026-05-08 21:11 | -18.84665 | 57.56403 | 28720 ft | 474 kts | 2° |
| 2026-05-08 21:12 | -18.81367 | 57.56608 | 28948 ft | 477 kts | 2° |
| 2026-05-08 21:12 | -18.78049 | 57.56815 | 29221 ft | 478 kts | 2° |
| 2026-05-08 21:12 | -18.74720 | 57.57022 | 29446 ft | 480 kts | 2° |
| 2026-05-08 21:12 | -18.71379 | 57.57230 | 29724 ft | 482 kts | 2° |
| 2026-05-08 21:13 | -18.68025 | 57.57439 | 29943 ft | 484 kts | 2° |
| 2026-05-08 21:13 | -18.64656 | 57.57649 | 30184 ft | 486 kts | 2° |
| 2026-05-08 21:13 | -18.61272 | 57.57860 | 30375 ft | 488 kts | 2° |
| 2026-05-08 21:13 | -18.57880 | 57.58071 | 30592 ft | 489 kts | 2° |
| 2026-05-08 21:14 | -18.54482 | 57.58282 | 30829 ft | 490 kts | 2° |
| 2026-05-08 21:14 | -18.51078 | 57.58494 | 31035 ft | 491 kts | 2° |
| 2026-05-08 21:14 | -18.47663 | 57.58706 | 31269 ft | 492 kts | 2° |
| 2026-05-08 21:14 | -18.44242 | 57.58919 | 31463 ft | 493 kts | 2° |
| 2026-05-08 21:15 | -18.40816 | 57.59132 | 31743 ft | 492 kts | 1° |
| 2026-05-08 21:15 | -18.37404 | 57.59344 | 32074 ft | 490 kts | 2° |
| 2026-05-08 21:15 | -18.34005 | 57.59555 | 32412 ft | 488 kts | 2° |
| 2026-05-08 21:15 | -18.30617 | 57.59766 | 32729 ft | 487 kts | 2° |
| 2026-05-08 21:16 | -18.27240 | 57.59975 | 33030 ft | 486 kts | 2° |
| 2026-05-08 21:16 | -18.23915 | 57.60181 | 33335 ft | 484 kts | 2° |
| 2026-05-08 21:16 | -18.20559 | 57.60389 | 33622 ft | 483 kts | 2° |
| 2026-05-08 21:16 | -18.17208 | 57.60597 | 33918 ft | 482 kts | 1° |
| 2026-05-08 21:17 | -18.13860 | 57.60804 | 34198 ft | 481 kts | 2° |
| 2026-05-08 21:17 | -18.10525 | 57.61011 | 34429 ft | 480 kts | 1° |
| 2026-05-08 21:17 | -18.07194 | 57.61217 | 34640 ft | 480 kts | 2° |
| 2026-05-08 21:17 | -18.03863 | 57.61423 | 34852 ft | 479 kts | 1° |
| 2026-05-08 21:18 | -18.00536 | 57.61629 | 35074 ft | 479 kts | 2° |
| 2026-05-08 21:18 | -17.97210 | 57.61834 | 35279 ft | 478 kts | 2° |
| 2026-05-08 21:18 | -17.93897 | 57.62138 | 35481 ft | 479 kts | 7° |
| 2026-05-08 21:18 | -17.90641 | 57.62898 | 35666 ft | 481 kts | 17° |
| 2026-05-08 21:19 | -17.87497 | 57.64111 | 35875 ft | 481 kts | 20° |
| 2026-05-08 21:19 | -17.84406 | 57.65461 | 36067 ft | 481 kts | 22° |
| 2026-05-08 21:19 | -17.81341 | 57.66874 | 36270 ft | 481 kts | 22° |
| 2026-05-08 21:19 | -17.78282 | 57.68312 | 36462 ft | 481 kts | 23° |
| 2026-05-08 21:20 | -17.75229 | 57.69748 | 36630 ft | 481 kts | 22° |
| 2026-05-08 21:20 | -17.72170 | 57.71177 | 36816 ft | 481 kts | 22° |
| 2026-05-08 21:20 | -17.69109 | 57.72595 | 36992 ft | 481 kts | 22° |
| 2026-05-08 21:21 | -17.62993 | 57.75402 | 37073 ft | 478 kts | 22° |
| 2026-05-08 21:21 | -17.56907 | 57.78180 | 37072 ft | 476 kts | 22° |
| 2026-05-08 21:22 | -17.50831 | 57.80950 | 37068 ft | 476 kts | 22° |
| 2026-05-08 21:22 | -17.44757 | 57.83718 | 37069 ft | 476 kts | 22° |
| 2026-05-08 21:23 | -17.38693 | 57.86482 | 37065 ft | 475 kts | 22° |
| 2026-05-08 21:23 | -17.32628 | 57.89243 | 37065 ft | 475 kts | 22° |
| 2026-05-08 21:24 | -17.26560 | 57.92005 | 37067 ft | 475 kts | 22° |
| 2026-05-08 21:24 | -17.20496 | 57.94761 | 37063 ft | 475 kts | 22° |
| 2026-05-08 21:25 | -17.15456 | 57.97052 | 37062 ft | 475 kts | 22° |
| 2026-05-08 21:25 | -17.09390 | 57.99806 | 37057 ft | 475 kts | 22° |
| 2026-05-08 21:26 | -17.03327 | 58.02558 | 37059 ft | 475 kts | 22° |
| 2026-05-08 21:26 | -16.97262 | 58.05308 | 37053 ft | 475 kts | 22° |
| 2026-05-08 21:27 | -16.91197 | 58.08056 | 37056 ft | 475 kts | 22° |
| 2026-05-08 21:27 | -16.85134 | 58.10801 | 37054 ft | 475 kts | 22° |
| 2026-05-08 21:28 | -16.79071 | 58.13545 | 37050 ft | 475 kts | 21° |
| 2026-05-08 21:28 | -16.73007 | 58.16287 | 37049 ft | 475 kts | 22° |
| 2026-05-08 21:29 | -16.66946 | 58.19026 | 37050 ft | 475 kts | 22° |
| 2026-05-08 21:29 | -16.60883 | 58.21764 | 37055 ft | 475 kts | 22° |
| 2026-05-08 21:30 | -16.54828 | 58.24496 | 37051 ft | 474 kts | 21° |
| 2026-05-08 21:30 | -16.48782 | 58.27222 | 37050 ft | 474 kts | 21° |
| 2026-05-08 21:31 | -16.42729 | 58.29950 | 37042 ft | 474 kts | 21° |
| 2026-05-08 21:31 | -16.36718 | 58.32657 | 37039 ft | 474 kts | 22° |
| 2026-05-08 21:32 | -16.30627 | 58.35397 | 37041 ft | 474 kts | 22° |
| 2026-05-08 21:32 | -16.24618 | 58.38100 | 37037 ft | 474 kts | 21° |
| 2026-05-08 21:33 | -16.18563 | 58.40821 | 37038 ft | 474 kts | 21° |
| 2026-05-08 21:33 | -16.12514 | 58.43537 | 37033 ft | 474 kts | 22° |
| 2026-05-08 21:34 | -16.06459 | 58.46255 | 37034 ft | 474 kts | 21° |
| 2026-05-08 21:34 | -16.00410 | 58.48968 | 37034 ft | 474 kts | 21° |
| 2026-05-08 21:35 | -15.94357 | 58.51682 | 37035 ft | 474 kts | 21° |
| 2026-05-08 21:35 | -15.88304 | 58.54393 | 37033 ft | 474 kts | 21° |
| 2026-05-08 21:36 | -15.82251 | 58.57102 | 37032 ft | 474 kts | 22° |
| 2026-05-08 21:36 | -15.76198 | 58.59809 | 37031 ft | 474 kts | 21° |
| 2026-05-08 21:37 | -15.70146 | 58.62515 | 37031 ft | 474 kts | 21° |
| 2026-05-08 21:37 | -15.64093 | 58.65219 | 37025 ft | 474 kts | 21° |
| 2026-05-08 21:38 | -15.58039 | 58.67922 | 37026 ft | 474 kts | 21° |
| 2026-05-08 21:38 | -15.51987 | 58.70622 | 37027 ft | 473 kts | 22° |
| 2026-05-08 21:39 | -15.45936 | 58.73320 | 37027 ft | 473 kts | 21° |
| 2026-05-08 21:39 | -15.39884 | 58.76017 | 37021 ft | 474 kts | 21° |
| 2026-05-08 21:40 | -15.33871 | 58.78695 | 37020 ft | 474 kts | 21° |
| 2026-05-08 21:40 | -15.27821 | 58.81387 | 37016 ft | 473 kts | 22° |
| 2026-05-08 21:41 | -15.18742 | 58.85425 | 37012 ft | 473 kts | 21° |
| 2026-05-08 21:41 | -15.12690 | 58.88114 | 37012 ft | 473 kts | 21° |
| 2026-05-08 21:42 | -15.06641 | 58.90800 | 37013 ft | 473 kts | 21° |
| 2026-05-08 21:42 | -15.00587 | 58.93486 | 37012 ft | 473 kts | 21° |
| 2026-05-08 21:43 | -14.94536 | 58.96170 | 37007 ft | 473 kts | 21° |
| 2026-05-08 21:43 | -14.88482 | 58.98854 | 37007 ft | 473 kts | 21° |
| 2026-05-08 21:44 | -14.82430 | 59.01535 | 37005 ft | 473 kts | 21° |
| 2026-05-08 21:44 | -14.76378 | 59.04214 | 37004 ft | 473 kts | 21° |
| 2026-05-08 21:45 | -14.70328 | 59.06891 | 37001 ft | 473 kts | 21° |
| 2026-05-08 21:45 | -14.64281 | 59.09564 | 37001 ft | 473 kts | 21° |
| 2026-05-08 21:46 | -14.58239 | 59.12234 | 36999 ft | 472 kts | 21° |
| 2026-05-08 21:46 | -14.52193 | 59.14904 | 36999 ft | 472 kts | 21° |
| 2026-05-08 21:47 | -14.46152 | 59.17571 | 36994 ft | 473 kts | 21° |
| 2026-05-08 21:47 | -14.40102 | 59.20239 | 36993 ft | 473 kts | 21° |
| 2026-05-08 21:48 | -14.34053 | 59.22906 | 36993 ft | 473 kts | 21° |
| 2026-05-08 21:48 | -14.28004 | 59.25571 | 36993 ft | 473 kts | 21° |
| 2026-05-08 21:49 | -14.21996 | 59.28217 | 36991 ft | 473 kts | 21° |
| 2026-05-08 21:49 | -14.15944 | 59.30880 | 36991 ft | 473 kts | 21° |
| 2026-05-08 21:50 | -14.09895 | 59.33540 | 36987 ft | 473 kts | 21° |
| 2026-05-08 21:50 | -14.03841 | 59.36201 | 36984 ft | 473 kts | 21° |
| 2026-05-08 21:51 | -13.97791 | 59.38859 | 36982 ft | 473 kts | 21° |
| 2026-05-08 21:51 | -13.91738 | 59.41517 | 36982 ft | 473 kts | 22° |
| 2026-05-08 21:52 | -13.85685 | 59.44173 | 36979 ft | 473 kts | 22° |
| 2026-05-08 21:52 | -13.79640 | 59.46824 | 36979 ft | 473 kts | 21° |
| 2026-05-08 21:53 | -13.73585 | 59.49477 | 36976 ft | 473 kts | 21° |
| 2026-05-08 21:53 | -13.67539 | 59.52126 | 36974 ft | 473 kts | 21° |
| 2026-05-08 21:54 | -13.61489 | 59.54774 | 36975 ft | 473 kts | 21° |
| 2026-05-08 21:54 | -13.55436 | 59.57422 | 36970 ft | 473 kts | 22° |
| 2026-05-08 21:55 | -13.49385 | 59.60068 | 36973 ft | 473 kts | 22° |
| 2026-05-08 21:56 | -13.40307 | 59.64035 | 36972 ft | 472 kts | 22° |
| 2026-05-08 21:56 | -13.34259 | 59.66676 | 36971 ft | 472 kts | 22° |
| 2026-05-08 21:57 | -13.28210 | 59.69316 | 36965 ft | 472 kts | 21° |